sensor_id;sensor_type;location;lat;lon;timestamp;temperature;humidity
44627;DHT22;30333;52.192;8.834;2023-09-19T00:00:42;16.30;99.90
44627;DHT22;30333;52.192;8.834;2023-09-19T00:03:09;16.10;99.90
44627;DHT22;30333;52.192;8.834;2023-09-19T00:05:36;16.20;99.90
44627;DHT22;30333;52.192;8.834;2023-09-19T00:08:03;16.20;99.90
44627;DHT22;30333;52.192;8.834;2023-09-19T00:10:30;16.10;99.90
44627;DHT22;30333;52.192;8.834;2023-09-19T00:13:02;16.20;99.90
44627;DHT22;30333;52.192;8.834;2023-09-19T00:15:37;16.10;99.90
44627;DHT22;30333;52.192;8.834;2023-09-19T00:18:03;16.10;99.90
44627;DHT22;30333;52.192;8.834;2023-09-19T00:20:31;16.00;99.90
44627;DHT22;30333;52.192;8.834;2023-09-19T00:30:23;16.00;99.90
44627;DHT22;30333;52.192;8.834;2023-09-19T00:32:50;16.10;99.90
44627;DHT22;30333;52.192;8.834;2023-09-19T00:35:21;16.10;99.90
44627;DHT22;30333;52.192;8.834;2023-09-19T00:42:42;16.30;99.90
44627;DHT22;30333;52.192;8.834;2023-09-19T00:45:09;16.30;99.90
44627;DHT22;30333;52.192;8.834;2023-09-19T00:47:39;16.20;99.90
44627;DHT22;30333;52.192;8.834;2023-09-19T00:50:08;16.10;99.90
44627;DHT22;30333;52.192;8.834;2023-09-19T00:52:35;16.20;99.90
44627;DHT22;30333;52.192;8.834;2023-09-19T00:55:09;16.20;99.90
44627;DHT22;30333;52.192;8.834;2023-09-19T00:57:36;16.20;99.90
44627;DHT22;30333;52.192;8.834;2023-09-19T01:00:04;16.00;99.90
44627;DHT22;30333;52.192;8.834;2023-09-19T01:02:34;15.90;99.90
44627;DHT22;30333;52.192;8.834;2023-09-19T01:05:00;16.00;99.90
44627;DHT22;30333;52.192;8.834;2023-09-19T01:07:27;16.10;99.90
44627;DHT22;30333;52.192;8.834;2023-09-19T01:09:58;16.30;99.90
44627;DHT22;30333;52.192;8.834;2023-09-19T01:12:33;16.20;99.90
44627;DHT22;30333;52.192;8.834;2023-09-19T01:15:06;16.30;99.90
44627;DHT22;30333;52.192;8.834;2023-09-19T01:20:36;16.30;99.90
44627;DHT22;30333;52.192;8.834;2023-09-19T01:23:10;16.30;99.90
44627;DHT22;30333;52.192;8.834;2023-09-19T01:25:57;16.40;99.90
44627;DHT22;30333;52.192;8.834;2023-09-19T01:31:23;16.30;99.90
44627;DHT22;30333;52.192;8.834;2023-09-19T01:34:01;16.30;99.90
44627;DHT22;30333;52.192;8.834;2023-09-19T01:36:34;16.30;99.90
44627;DHT22;30333;52.192;8.834;2023-09-19T01:39:05;16.30;99.90
44627;DHT22;30333;52.192;8.834;2023-09-19T01:41:47;16.30;99.90
44627;DHT22;30333;52.192;8.834;2023-09-19T01:44:24;16.20;99.90
44627;DHT22;30333;52.192;8.834;2023-09-19T01:46:52;16.20;99.90
44627;DHT22;30333;52.192;8.834;2023-09-19T01:50:01;16.20;99.90
44627;DHT22;30333;52.192;8.834;2023-09-19T01:52:18;16.20;99.90
44627;DHT22;30333;52.192;8.834;2023-09-19T01:54:51;16.20;99.90
44627;DHT22;30333;52.192;8.834;2023-09-19T01:57:29;16.10;99.90
44627;DHT22;30333;52.192;8.834;2023-09-19T02:00:04;16.20;99.90
44627;DHT22;30333;52.192;8.834;2023-09-19T02:02:35;16.20;99.90
44627;DHT22;30333;52.192;8.834;2023-09-19T02:05:02;16.30;99.90
44627;DHT22;30333;52.192;8.834;2023-09-19T02:07:29;16.40;99.90
44627;DHT22;30333;52.192;8.834;2023-09-19T02:09:59;16.20;99.90
44627;DHT22;30333;52.192;8.834;2023-09-19T02:12:28;16.20;99.90
44627;DHT22;30333;52.192;8.834;2023-09-19T02:14:54;16.20;99.90
44627;DHT22;30333;52.192;8.834;2023-09-19T02:27:04;15.90;99.90
44627;DHT22;30333;52.192;8.834;2023-09-19T02:29:30;16.00;99.90
44627;DHT22;30333;52.192;8.834;2023-09-19T02:31:56;16.00;99.90
44627;DHT22;30333;52.192;8.834;2023-09-19T02:36:48;16.10;99.90
44627;DHT22;30333;52.192;8.834;2023-09-19T02:44:07;16.00;99.90
44627;DHT22;30333;52.192;8.834;2023-09-19T02:46:33;16.10;99.90
44627;DHT22;30333;52.192;8.834;2023-09-19T02:48:59;16.00;99.90
44627;DHT22;30333;52.192;8.834;2023-09-19T02:51:25;16.10;99.90
44627;DHT22;30333;52.192;8.834;2023-09-19T02:58:46;16.00;99.90
44627;DHT22;30333;52.192;8.834;2023-09-19T03:01:11;16.20;99.90
44627;DHT22;30333;52.192;8.834;2023-09-19T03:03:37;16.10;99.90
44627;DHT22;30333;52.192;8.834;2023-09-19T03:06:05;16.20;99.90
44627;DHT22;30333;52.192;8.834;2023-09-19T03:11:03;16.30;99.90
44627;DHT22;30333;52.192;8.834;2023-09-19T03:15:57;16.30;99.90
44627;DHT22;30333;52.192;8.834;2023-09-19T03:18:24;16.20;99.90
44627;DHT22;30333;52.192;8.834;2023-09-19T03:20:57;16.20;99.90
44627;DHT22;30333;52.192;8.834;2023-09-19T03:25:52;16.10;99.90
44627;DHT22;30333;52.192;8.834;2023-09-19T03:28:18;16.10;99.90
44627;DHT22;30333;52.192;8.834;2023-09-19T03:33:09;16.10;99.90
44627;DHT22;30333;52.192;8.834;2023-09-19T03:35:38;16.10;99.90
44627;DHT22;30333;52.192;8.834;2023-09-19T03:38:05;16.10;99.90
44627;DHT22;30333;52.192;8.834;2023-09-19T03:42:58;16.00;99.90
44627;DHT22;30333;52.192;8.834;2023-09-19T03:47:51;15.90;99.90
44627;DHT22;30333;52.192;8.834;2023-09-19T03:55:09;15.60;99.90
44627;DHT22;30333;52.192;8.834;2023-09-19T03:57:35;15.70;99.90
44627;DHT22;30333;52.192;8.834;2023-09-19T04:00:02;15.60;99.90
44627;DHT22;30333;52.192;8.834;2023-09-19T04:02:27;15.90;99.90
44627;DHT22;30333;52.192;8.834;2023-09-19T04:04:58;15.80;99.90
44627;DHT22;30333;52.192;8.834;2023-09-19T04:09:54;15.70;99.90
44627;DHT22;30333;52.192;8.834;2023-09-19T04:22:03;15.80;99.90
44627;DHT22;30333;52.192;8.834;2023-09-19T04:24:29;15.60;99.90
44627;DHT22;30333;52.192;8.834;2023-09-19T04:29:22;15.60;99.90
44627;DHT22;30333;52.192;8.834;2023-09-19T04:36:41;15.60;99.90
44627;DHT22;30333;52.192;8.834;2023-09-19T04:41:33;15.70;99.90
44627;DHT22;30333;52.192;8.834;2023-09-19T04:53:44;15.70;99.90
44627;DHT22;30333;52.192;8.834;2023-09-19T05:03:28;15.60;99.90
44627;DHT22;30333;52.192;8.834;2023-09-19T05:05:54;15.50;99.90
44627;DHT22;30333;52.192;8.834;2023-09-19T05:08:20;15.40;99.90
44627;DHT22;30333;52.192;8.834;2023-09-19T05:10:47;15.20;99.90
44627;DHT22;30333;52.192;8.834;2023-09-19T05:15:40;15.20;99.90
44627;DHT22;30333;52.192;8.834;2023-09-19T05:23:01;15.20;99.90
44627;DHT22;30333;52.192;8.834;2023-09-19T05:25:28;15.10;99.90
44627;DHT22;30333;52.192;8.834;2023-09-19T05:27:56;15.10;99.90
44627;DHT22;30333;52.192;8.834;2023-09-19T05:30:23;15.00;99.90
44627;DHT22;30333;52.192;8.834;2023-09-19T05:37:41;15.10;99.90
44627;DHT22;30333;52.192;8.834;2023-09-19T05:40:07;15.00;99.90
44627;DHT22;30333;52.192;8.834;2023-09-19T05:42:38;14.80;99.90
44627;DHT22;30333;52.192;8.834;2023-09-19T05:45:05;14.90;99.90
44627;DHT22;30333;52.192;8.834;2023-09-19T05:47:32;14.70;99.90
44627;DHT22;30333;52.192;8.834;2023-09-19T05:52:26;14.90;99.90
44627;DHT22;30333;52.192;8.834;2023-09-19T05:59:44;14.90;99.90
44627;DHT22;30333;52.192;8.834;2023-09-19T06:04:37;14.80;99.90
44627;DHT22;30333;52.192;8.834;2023-09-19T06:11:59;14.90;99.90
44627;DHT22;30333;52.192;8.834;2023-09-19T06:21:52;14.90;99.90
44627;DHT22;30333;52.192;8.834;2023-09-19T06:26:46;14.90;99.90
44627;DHT22;30333;52.192;8.834;2023-09-19T06:31:39;14.90;99.90
44627;DHT22;30333;52.192;8.834;2023-09-19T06:36:32;15.00;99.90
44627;DHT22;30333;52.192;8.834;2023-09-19T06:41:24;14.70;99.90
44627;DHT22;30333;52.192;8.834;2023-09-19T06:46:19;14.90;99.90
44627;DHT22;30333;52.192;8.834;2023-09-19T06:48:44;15.00;99.90
44627;DHT22;30333;52.192;8.834;2023-09-19T07:05:54;15.20;99.90
44627;DHT22;30333;52.192;8.834;2023-09-19T07:08:21;15.40;99.90
44627;DHT22;30333;52.192;8.834;2023-09-19T07:13:19;15.50;99.90
44627;DHT22;30333;52.192;8.834;2023-09-19T07:15:45;15.30;99.90
44627;DHT22;30333;52.192;8.834;2023-09-19T07:18:16;15.40;99.90
44627;DHT22;30333;52.192;8.834;2023-09-19T07:20:43;15.50;99.90
44627;DHT22;30333;52.192;8.834;2023-09-19T07:23:21;15.40;99.90
44627;DHT22;30333;52.192;8.834;2023-09-19T07:28:18;15.60;99.90
44627;DHT22;30333;52.192;8.834;2023-09-19T07:33:09;15.60;99.90
44627;DHT22;30333;52.192;8.834;2023-09-19T07:35:39;15.60;99.90
44627;DHT22;30333;52.192;8.834;2023-09-19T07:47:56;15.70;99.90
44627;DHT22;30333;52.192;8.834;2023-09-19T07:52:49;15.90;99.90
44627;DHT22;30333;52.192;8.834;2023-09-19T07:55:16;15.90;99.90
44627;DHT22;30333;52.192;8.834;2023-09-19T07:57:43;15.90;99.90
44627;DHT22;30333;52.192;8.834;2023-09-19T08:00:09;16.00;99.90
44627;DHT22;30333;52.192;8.834;2023-09-19T08:07:44;16.20;99.90
44627;DHT22;30333;52.192;8.834;2023-09-19T08:15:17;16.30;99.90
44627;DHT22;30333;52.192;8.834;2023-09-19T08:17:44;16.60;99.90
44627;DHT22;30333;52.192;8.834;2023-09-19T08:20:10;16.40;99.90
44627;DHT22;30333;52.192;8.834;2023-09-19T08:22:53;16.50;99.90
44627;DHT22;30333;52.192;8.834;2023-09-19T08:27:49;16.60;99.90
44627;DHT22;30333;52.192;8.834;2023-09-19T08:30:24;16.60;99.90
44627;DHT22;30333;52.192;8.834;2023-09-19T08:32:59;16.90;99.90
44627;DHT22;30333;52.192;8.834;2023-09-19T08:35:25;17.00;99.90
44627;DHT22;30333;52.192;8.834;2023-09-19T08:42:53;17.10;99.90
44627;DHT22;30333;52.192;8.834;2023-09-19T08:45:23;17.20;99.90
44627;DHT22;30333;52.192;8.834;2023-09-19T08:50:52;17.00;99.90
44627;DHT22;30333;52.192;8.834;2023-09-19T08:53:49;17.20;99.90
44627;DHT22;30333;52.192;8.834;2023-09-19T08:56:18;17.20;99.90
44627;DHT22;30333;52.192;8.834;2023-09-19T09:01:15;17.50;99.90
44627;DHT22;30333;52.192;8.834;2023-09-19T09:03:41;17.50;99.90
44627;DHT22;30333;52.192;8.834;2023-09-19T09:06:09;17.70;99.90
44627;DHT22;30333;52.192;8.834;2023-09-19T09:25:53;18.00;99.90
44627;DHT22;30333;52.192;8.834;2023-09-19T09:28:24;18.10;99.90
44627;DHT22;30333;52.192;8.834;2023-09-19T09:30:50;18.10;99.90
44627;DHT22;30333;52.192;8.834;2023-09-19T09:35:54;18.20;99.90
44627;DHT22;30333;52.192;8.834;2023-09-19T09:38:24;18.30;99.90
44627;DHT22;30333;52.192;8.834;2023-09-19T09:40:54;18.50;99.90
44627;DHT22;30333;52.192;8.834;2023-09-19T09:43:26;18.50;99.90
44627;DHT22;30333;52.192;8.834;2023-09-19T09:46:19;18.50;99.90
44627;DHT22;30333;52.192;8.834;2023-09-19T09:49:03;18.70;99.90
44627;DHT22;30333;52.192;8.834;2023-09-19T09:52:06;18.70;99.90
44627;DHT22;30333;52.192;8.834;2023-09-19T09:58:16;18.90;99.90
44627;DHT22;30333;52.192;8.834;2023-09-19T10:00:56;18.90;99.90
44627;DHT22;30333;52.192;8.834;2023-09-19T10:03:34;18.80;99.90
44627;DHT22;30333;52.192;8.834;2023-09-19T10:06:04;18.80;99.90
44627;DHT22;30333;52.192;8.834;2023-09-19T10:09:05;18.80;99.90
44627;DHT22;30333;52.192;8.834;2023-09-19T10:11:59;18.80;99.90
44627;DHT22;30333;52.192;8.834;2023-09-19T10:14:30;18.90;99.90
44627;DHT22;30333;52.192;8.834;2023-09-19T10:16:59;18.90;99.90
44627;DHT22;30333;52.192;8.834;2023-09-19T10:19:45;18.80;99.90
44627;DHT22;30333;52.192;8.834;2023-09-19T10:22:12;18.70;99.90
44627;DHT22;30333;52.192;8.834;2023-09-19T10:24:40;18.80;99.90
44627;DHT22;30333;52.192;8.834;2023-09-19T10:27:06;18.80;99.90
44627;DHT22;30333;52.192;8.834;2023-09-19T10:29:39;18.80;99.90
44627;DHT22;30333;52.192;8.834;2023-09-19T10:32:06;19.00;99.90
44627;DHT22;30333;52.192;8.834;2023-09-19T10:34:41;19.00;99.90
44627;DHT22;30333;52.192;8.834;2023-09-19T10:37:07;19.20;99.90
44627;DHT22;30333;52.192;8.834;2023-09-19T10:39:39;19.20;99.90
44627;DHT22;30333;52.192;8.834;2023-09-19T10:44:33;19.40;99.90
44627;DHT22;30333;52.192;8.834;2023-09-19T10:46:59;19.50;99.90
44627;DHT22;30333;52.192;8.834;2023-09-19T10:49:25;19.50;99.90
44627;DHT22;30333;52.192;8.834;2023-09-19T10:51:55;19.60;99.90
44627;DHT22;30333;52.192;8.834;2023-09-19T10:54:30;19.70;99.90
44627;DHT22;30333;52.192;8.834;2023-09-19T10:56:59;19.60;99.90
44627;DHT22;30333;52.192;8.834;2023-09-19T10:59:26;19.60;99.90
44627;DHT22;30333;52.192;8.834;2023-09-19T11:02:00;19.70;99.90
44627;DHT22;30333;52.192;8.834;2023-09-19T11:04:40;19.80;99.90
44627;DHT22;30333;52.192;8.834;2023-09-19T11:09:44;19.80;99.90
44627;DHT22;30333;52.192;8.834;2023-09-19T11:15:01;19.70;99.90
44627;DHT22;30333;52.192;8.834;2023-09-19T11:23:16;19.90;99.90
44627;DHT22;30333;52.192;8.834;2023-09-19T11:25:42;19.80;99.90
44627;DHT22;30333;52.192;8.834;2023-09-19T11:30:46;20.10;99.90
44627;DHT22;30333;52.192;8.834;2023-09-19T11:36:16;20.30;99.90
44627;DHT22;30333;52.192;8.834;2023-09-19T11:46:17;20.70;99.90
44627;DHT22;30333;52.192;8.834;2023-09-19T11:48:48;20.90;99.90
44627;DHT22;30333;52.192;8.834;2023-09-19T11:51:16;20.80;99.90
44627;DHT22;30333;52.192;8.834;2023-09-19T11:53:48;21.00;99.90
44627;DHT22;30333;52.192;8.834;2023-09-19T11:56:16;21.20;99.90
44627;DHT22;30333;52.192;8.834;2023-09-19T11:58:46;21.20;99.90
44627;DHT22;30333;52.192;8.834;2023-09-19T12:01:13;21.20;99.90
44627;DHT22;30333;52.192;8.834;2023-09-19T12:03:42;21.10;99.90
44627;DHT22;30333;52.192;8.834;2023-09-19T12:06:14;21.10;99.90
44627;DHT22;30333;52.192;8.834;2023-09-19T12:08:43;21.10;99.90
44627;DHT22;30333;52.192;8.834;2023-09-19T12:11:15;21.10;99.90
44627;DHT22;30333;52.192;8.834;2023-09-19T12:13:43;21.10;99.90
44627;DHT22;30333;52.192;8.834;2023-09-19T12:16:17;21.10;99.90
44627;DHT22;30333;52.192;8.834;2023-09-19T12:18:46;21.00;99.90
44627;DHT22;30333;52.192;8.834;2023-09-19T12:21:22;21.00;99.90
44627;DHT22;30333;52.192;8.834;2023-09-19T12:26:45;21.00;99.90
44627;DHT22;30333;52.192;8.834;2023-09-19T12:29:32;21.10;99.90
44627;DHT22;30333;52.192;8.834;2023-09-19T12:32:06;21.20;99.90
44627;DHT22;30333;52.192;8.834;2023-09-19T12:34:33;21.30;99.90
44627;DHT22;30333;52.192;8.834;2023-09-19T12:37:10;21.20;99.90
44627;DHT22;30333;52.192;8.834;2023-09-19T12:39:53;21.30;99.90
44627;DHT22;30333;52.192;8.834;2023-09-19T12:42:24;21.30;99.90
44627;DHT22;30333;52.192;8.834;2023-09-19T12:44:53;21.30;99.90
44627;DHT22;30333;52.192;8.834;2023-09-19T12:47:23;21.20;99.90
44627;DHT22;30333;52.192;8.834;2023-09-19T12:50:05;21.20;99.90
44627;DHT22;30333;52.192;8.834;2023-09-19T12:52:42;21.00;99.90
44627;DHT22;30333;52.192;8.834;2023-09-19T12:55:22;21.00;99.90
44627;DHT22;30333;52.192;8.834;2023-09-19T13:00:35;21.10;99.90
44627;DHT22;30333;52.192;8.834;2023-09-19T13:03:15;21.10;99.90
44627;DHT22;30333;52.192;8.834;2023-09-19T13:05:57;21.00;99.90
44627;DHT22;30333;52.192;8.834;2023-09-19T13:08:38;20.90;99.90
44627;DHT22;30333;52.192;8.834;2023-09-19T13:11:09;20.90;99.90
44627;DHT22;30333;52.192;8.834;2023-09-19T13:14:14;21.00;99.90
44627;DHT22;30333;52.192;8.834;2023-09-19T13:17:05;21.00;99.90
44627;DHT22;30333;52.192;8.834;2023-09-19T13:19:49;20.80;99.90
44627;DHT22;30333;52.192;8.834;2023-09-19T13:22:37;20.80;99.90
44627;DHT22;30333;52.192;8.834;2023-09-19T13:25:07;20.80;99.90
44627;DHT22;30333;52.192;8.834;2023-09-19T13:27:34;20.70;99.90
44627;DHT22;30333;52.192;8.834;2023-09-19T13:29:59;20.70;99.90
44627;DHT22;30333;52.192;8.834;2023-09-19T13:32:26;20.60;99.90
44627;DHT22;30333;52.192;8.834;2023-09-19T13:34:51;20.70;99.90
44627;DHT22;30333;52.192;8.834;2023-09-19T13:42:13;20.70;99.90
44627;DHT22;30333;52.192;8.834;2023-09-19T13:44:38;20.70;99.90
44627;DHT22;30333;52.192;8.834;2023-09-19T13:47:06;20.70;99.90
44627;DHT22;30333;52.192;8.834;2023-09-19T13:49:35;20.80;99.90
44627;DHT22;30333;52.192;8.834;2023-09-19T13:52:01;21.00;99.90
44627;DHT22;30333;52.192;8.834;2023-09-19T14:01:49;21.10;99.90
44627;DHT22;30333;52.192;8.834;2023-09-19T14:04:16;21.00;99.90
44627;DHT22;30333;52.192;8.834;2023-09-19T14:06:42;21.10;99.90
44627;DHT22;30333;52.192;8.834;2023-09-19T14:09:08;20.90;99.90
44627;DHT22;30333;52.192;8.834;2023-09-19T14:11:35;21.10;99.90
44627;DHT22;30333;52.192;8.834;2023-09-19T14:16:27;21.50;99.90
44627;DHT22;30333;52.192;8.834;2023-09-19T14:23:48;21.50;99.90
44627;DHT22;30333;52.192;8.834;2023-09-19T14:26:14;21.50;99.90
44627;DHT22;30333;52.192;8.834;2023-09-19T14:28:41;21.40;99.90
44627;DHT22;30333;52.192;8.834;2023-09-19T14:31:10;21.40;99.90
44627;DHT22;30333;52.192;8.834;2023-09-19T14:33:37;21.40;99.90
44627;DHT22;30333;52.192;8.834;2023-09-19T14:36:07;21.30;99.90
44627;DHT22;30333;52.192;8.834;2023-09-19T14:38:35;21.20;99.90
44627;DHT22;30333;52.192;8.834;2023-09-19T14:41:02;21.10;99.90
44627;DHT22;30333;52.192;8.834;2023-09-19T14:43:28;21.10;99.90
44627;DHT22;30333;52.192;8.834;2023-09-19T14:46:05;21.00;99.90
44627;DHT22;30333;52.192;8.834;2023-09-19T14:48:32;20.90;99.90
44627;DHT22;30333;52.192;8.834;2023-09-19T14:51:05;21.00;99.90
44627;DHT22;30333;52.192;8.834;2023-09-19T14:53:32;21.00;99.90
44627;DHT22;30333;52.192;8.834;2023-09-19T14:56:03;20.90;99.90
44627;DHT22;30333;52.192;8.834;2023-09-19T14:58:29;20.80;99.90
44627;DHT22;30333;52.192;8.834;2023-09-19T15:01:06;20.80;99.90
44627;DHT22;30333;52.192;8.834;2023-09-19T15:03:33;20.70;99.90
44627;DHT22;30333;52.192;8.834;2023-09-19T15:06:03;20.60;99.90
44627;DHT22;30333;52.192;8.834;2023-09-19T15:08:35;20.60;99.90
44627;DHT22;30333;52.192;8.834;2023-09-19T15:11:04;20.60;99.90
44627;DHT22;30333;52.192;8.834;2023-09-19T15:13:31;20.70;99.90
44627;DHT22;30333;52.192;8.834;2023-09-19T15:16:04;20.70;99.90
44627;DHT22;30333;52.192;8.834;2023-09-19T15:18:30;20.70;99.90
44627;DHT22;30333;52.192;8.834;2023-09-19T15:20:57;20.70;99.90
44627;DHT22;30333;52.192;8.834;2023-09-19T15:23:22;20.90;99.90
44627;DHT22;30333;52.192;8.834;2023-09-19T15:25:51;20.70;99.90
44627;DHT22;30333;52.192;8.834;2023-09-19T15:33:08;20.50;99.90
44627;DHT22;30333;52.192;8.834;2023-09-19T15:38:02;20.40;99.90
44627;DHT22;30333;52.192;8.834;2023-09-19T15:40:28;20.40;99.90
44627;DHT22;30333;52.192;8.834;2023-09-19T15:42:54;20.20;99.90
44627;DHT22;30333;52.192;8.834;2023-09-19T15:47:47;20.20;99.90
44627;DHT22;30333;52.192;8.834;2023-09-19T15:52:40;20.30;99.90
44627;DHT22;30333;52.192;8.834;2023-09-19T15:55:06;20.40;99.90
44627;DHT22;30333;52.192;8.834;2023-09-19T15:57:33;20.20;99.90
44627;DHT22;30333;52.192;8.834;2023-09-19T15:59:59;20.20;99.90
44627;DHT22;30333;52.192;8.834;2023-09-19T16:02:25;20.20;99.90
44627;DHT22;30333;52.192;8.834;2023-09-19T16:04:54;20.20;99.90
44627;DHT22;30333;52.192;8.834;2023-09-19T16:07:19;20.20;99.90
44627;DHT22;30333;52.192;8.834;2023-09-19T16:14:39;20.10;99.90
44627;DHT22;30333;52.192;8.834;2023-09-19T16:21:58;20.00;99.90
44627;DHT22;30333;52.192;8.834;2023-09-19T16:31:46;19.50;99.90
44627;DHT22;30333;52.192;8.834;2023-09-19T16:34:12;19.50;99.90
44627;DHT22;30333;52.192;8.834;2023-09-19T16:36:39;19.40;99.90
44627;DHT22;30333;52.192;8.834;2023-09-19T16:41:33;19.30;99.90
44627;DHT22;30333;52.192;8.834;2023-09-19T16:46:26;19.20;99.90
44627;DHT22;30333;52.192;8.834;2023-09-19T16:56:15;19.20;99.90
44627;DHT22;30333;52.192;8.834;2023-09-19T16:58:45;19.10;99.90
44627;DHT22;30333;52.192;8.834;2023-09-19T17:01:13;19.00;99.90
44627;DHT22;30333;52.192;8.834;2023-09-19T17:03:43;19.00;99.90
44627;DHT22;30333;52.192;8.834;2023-09-19T17:06:10;19.00;99.90
44627;DHT22;30333;52.192;8.834;2023-09-19T17:08:38;18.90;99.90
44627;DHT22;30333;52.192;8.834;2023-09-19T17:11:09;19.00;99.90
44627;DHT22;30333;52.192;8.834;2023-09-19T17:13:35;18.90;99.90
44627;DHT22;30333;52.192;8.834;2023-09-19T17:16:12;18.90;99.90
44627;DHT22;30333;52.192;8.834;2023-09-19T17:18:39;18.90;99.90
44627;DHT22;30333;52.192;8.834;2023-09-19T17:21:11;18.80;99.90
44627;DHT22;30333;52.192;8.834;2023-09-19T17:23:38;18.90;99.90
44627;DHT22;30333;52.192;8.834;2023-09-19T17:26:13;18.80;99.90
44627;DHT22;30333;52.192;8.834;2023-09-19T17:28:41;18.80;99.90
44627;DHT22;30333;52.192;8.834;2023-09-19T17:31:17;18.80;99.90
44627;DHT22;30333;52.192;8.834;2023-09-19T17:33:45;18.70;99.90
44627;DHT22;30333;52.192;8.834;2023-09-19T17:36:13;18.60;99.90
44627;DHT22;30333;52.192;8.834;2023-09-19T17:38:43;18.70;99.90
44627;DHT22;30333;52.192;8.834;2023-09-19T17:41:09;18.60;99.90
44627;DHT22;30333;52.192;8.834;2023-09-19T17:43:37;18.70;99.90
44627;DHT22;30333;52.192;8.834;2023-09-19T17:46:11;18.50;99.90
44627;DHT22;30333;52.192;8.834;2023-09-19T17:48:40;18.60;99.90
44627;DHT22;30333;52.192;8.834;2023-09-19T17:53:37;18.60;99.90
44627;DHT22;30333;52.192;8.834;2023-09-19T17:56:04;18.50;99.90
44627;DHT22;30333;52.192;8.834;2023-09-19T17:58:30;18.70;99.90
44627;DHT22;30333;52.192;8.834;2023-09-19T18:00:56;18.40;99.90
44627;DHT22;30333;52.192;8.834;2023-09-19T18:03:23;18.50;99.90
44627;DHT22;30333;52.192;8.834;2023-09-19T18:05:52;18.60;99.90
44627;DHT22;30333;52.192;8.834;2023-09-19T18:10:47;18.30;99.90
44627;DHT22;30333;52.192;8.834;2023-09-19T18:13:12;18.30;99.90
44627;DHT22;30333;52.192;8.834;2023-09-19T18:15:38;18.20;99.90
44627;DHT22;30333;52.192;8.834;2023-09-19T18:18:05;18.40;99.90
44627;DHT22;30333;52.192;8.834;2023-09-19T18:20:36;18.40;99.90
44627;DHT22;30333;52.192;8.834;2023-09-19T18:23:02;18.40;99.90
44627;DHT22;30333;52.192;8.834;2023-09-19T18:25:28;18.40;99.90
44627;DHT22;30333;52.192;8.834;2023-09-19T18:37:40;18.40;99.90
44627;DHT22;30333;52.192;8.834;2023-09-19T18:40:07;18.20;99.90
44627;DHT22;30333;52.192;8.834;2023-09-19T18:47:28;18.20;99.90
44627;DHT22;30333;52.192;8.834;2023-09-19T18:49:54;18.30;99.90
44627;DHT22;30333;52.192;8.834;2023-09-19T18:54:48;18.30;99.90
44627;DHT22;30333;52.192;8.834;2023-09-19T19:04:31;18.20;99.90
44627;DHT22;30333;52.192;8.834;2023-09-19T19:09:24;18.00;99.90
44627;DHT22;30333;52.192;8.834;2023-09-19T19:16:42;18.00;99.90
44627;DHT22;30333;52.192;8.834;2023-09-19T19:19:09;18.20;99.90
44627;DHT22;30333;52.192;8.834;2023-09-19T19:21:36;18.10;99.90
44627;DHT22;30333;52.192;8.834;2023-09-19T19:24:03;18.20;99.90
44627;DHT22;30333;52.192;8.834;2023-09-19T19:26:30;18.20;99.90
44627;DHT22;30333;52.192;8.834;2023-09-19T19:33:51;18.30;99.90
44627;DHT22;30333;52.192;8.834;2023-09-19T19:36:19;18.20;99.90
44627;DHT22;30333;52.192;8.834;2023-09-19T19:38:47;18.20;99.90
44627;DHT22;30333;52.192;8.834;2023-09-19T19:48:33;18.10;99.90
44627;DHT22;30333;52.192;8.834;2023-09-19T19:51:07;18.00;99.90
44627;DHT22;30333;52.192;8.834;2023-09-19T19:53:33;18.10;99.90
44627;DHT22;30333;52.192;8.834;2023-09-19T19:55:59;17.90;99.90
44627;DHT22;30333;52.192;8.834;2023-09-19T19:58:25;18.00;99.90
44627;DHT22;30333;52.192;8.834;2023-09-19T20:00:55;18.00;99.90
44627;DHT22;30333;52.192;8.834;2023-09-19T20:05:47;18.10;99.90
44627;DHT22;30333;52.192;8.834;2023-09-19T20:08:16;18.10;99.90
44627;DHT22;30333;52.192;8.834;2023-09-19T20:10:43;18.10;99.90
44627;DHT22;30333;52.192;8.834;2023-09-19T20:13:09;18.10;99.90
44627;DHT22;30333;52.192;8.834;2023-09-19T20:15:37;18.20;99.90
44627;DHT22;30333;52.192;8.834;2023-09-19T20:20:37;18.10;99.90
44627;DHT22;30333;52.192;8.834;2023-09-19T20:23:03;18.00;99.90
44627;DHT22;30333;52.192;8.834;2023-09-19T20:25:29;18.10;99.90
44627;DHT22;30333;52.192;8.834;2023-09-19T20:27:55;18.10;99.90
44627;DHT22;30333;52.192;8.834;2023-09-19T20:30:21;17.80;99.90
44627;DHT22;30333;52.192;8.834;2023-09-19T20:40:07;17.70;99.90
44627;DHT22;30333;52.192;8.834;2023-09-19T20:42:36;17.70;99.90
44627;DHT22;30333;52.192;8.834;2023-09-19T20:45:05;17.70;99.90
44627;DHT22;30333;52.192;8.834;2023-09-19T20:47:30;17.50;99.90
44627;DHT22;30333;52.192;8.834;2023-09-19T20:49:57;17.60;99.90
44627;DHT22;30333;52.192;8.834;2023-09-19T20:54:49;17.70;99.90
44627;DHT22;30333;52.192;8.834;2023-09-19T20:57:15;17.50;99.90
44627;DHT22;30333;52.192;8.834;2023-09-19T21:02:07;17.50;99.90
44627;DHT22;30333;52.192;8.834;2023-09-19T21:11:53;17.30;99.90
44627;DHT22;30333;52.192;8.834;2023-09-19T21:14:18;17.50;99.90
44627;DHT22;30333;52.192;8.834;2023-09-19T21:19:10;17.50;99.90
44627;DHT22;30333;52.192;8.834;2023-09-19T21:26:29;17.50;99.90
44627;DHT22;30333;52.192;8.834;2023-09-19T21:33:49;17.40;99.90
44627;DHT22;30333;52.192;8.834;2023-09-19T21:38:50;17.60;99.90
44627;DHT22;30333;52.192;8.834;2023-09-19T21:41:18;17.70;99.90
44627;DHT22;30333;52.192;8.834;2023-09-19T21:43:45;17.60;99.90
44627;DHT22;30333;52.192;8.834;2023-09-19T21:46:11;17.50;99.90
44627;DHT22;30333;52.192;8.834;2023-09-19T21:48:37;17.60;99.90
44627;DHT22;30333;52.192;8.834;2023-09-19T21:56:00;17.50;99.90
44627;DHT22;30333;52.192;8.834;2023-09-19T22:00:53;17.60;99.90
44627;DHT22;30333;52.192;8.834;2023-09-19T22:10:47;17.60;99.90
44627;DHT22;30333;52.192;8.834;2023-09-19T22:13:17;17.60;99.90
44627;DHT22;30333;52.192;8.834;2023-09-19T22:15:48;17.70;99.90
44627;DHT22;30333;52.192;8.834;2023-09-19T22:18:14;17.50;99.90
44627;DHT22;30333;52.192;8.834;2023-09-19T22:20:45;17.50;99.90
44627;DHT22;30333;52.192;8.834;2023-09-19T22:23:13;17.60;99.90
44627;DHT22;30333;52.192;8.834;2023-09-19T22:25:39;15.80;99.90
44627;DHT22;30333;52.192;8.834;2023-09-19T22:28:06;17.70;99.90
44627;DHT22;30333;52.192;8.834;2023-09-19T22:30:33;17.70;99.90
44627;DHT22;30333;52.192;8.834;2023-09-19T22:32:59;17.60;99.90
44627;DHT22;30333;52.192;8.834;2023-09-19T22:35:26;17.60;99.90
44627;DHT22;30333;52.192;8.834;2023-09-19T22:37:55;17.70;99.90
44627;DHT22;30333;52.192;8.834;2023-09-19T22:42:57;17.50;99.90
44627;DHT22;30333;52.192;8.834;2023-09-19T22:45:24;17.60;99.90
44627;DHT22;30333;52.192;8.834;2023-09-19T22:47:52;17.60;99.90